Hersey, Maine
Current Conditions -  °F | °C
As of 6:53 AM on Friday 24 Oct 2014 (Local Time) from KHUL Reporting Station
Moderate Rain Moderate Rain  
Wind Chill: 36°   Ceiling: 400
Heat Index: 42°   Visibility: 3mi
Dew Point: 40°   Wind: 12mph
Humidity: 92%   Direction: 10°N
Pressure: 29.74"   Gusts: NA
Location:  46.2367°N, 68.3001°W
Report Text: KHUL 241053Z AUTO 01010KT 3SM RA BR BKN004 OVC027 06/04 A2974 RMK AO2 SLP074 P0023 T00560044
Loading
Personal Weather Stations






























Interactive Weather Map
Tropical Storm Tracking
New forecast layout! Learn more

10-Day Weather Forecast

Advertisements
Track Severe Weather on mobile